Gentryville, Indiana
Current Conditions -  °F | °C
As of 4:55 PM on Saturday 25 Oct 2014 (Local Time) from KHNB Reporting Station
Clear Clear  
Wind Chill: 75°   Ceiling: Unl
Heat Index: 75°   Visibility: 10mi
Dew Point: 55°   Wind: 8mph
Humidity: 50%   Direction: 340°NNW
Pressure: 29.99"   Gusts: NA
Location:  38.1°N, 87.03°W
Report Text: KHNB 252155Z AUTO 34007KT 10SM CLR 24/13 A2999 RMK AO1
Loading
Personal Weather Stations






























Interactive Weather Map New forecast layout! Learn more

10-Day Weather Forecast

Advertisements
Track Severe Weather on mobile